Sabinsville, PA

06:12 EDT 31. Srpen 2014 (GMT -0400)
Wellsville Municipal-Tarantine | Change Station
CLOSE
Current Station
Letiště
Location: Wellsville,
Nadmořská výška: 2123 ft
Poblíž povětrnostní stanice

Výška 2123 ft 42.11 °N, 77.98 °W | Updated 16 minutes ago

Mostly Cloudy
Skoro zataženo
69 °F
Pocit jako 69 °F
S
8
Vítr proměnlivý Vítr od JJZ

Dnes
Vysoké -- | Nízké -- °F
--% Možnost srážek
Včera
Vysoké -- | Nízké -- °F
Precip. -- inčů
6:34 AM 7:45 PM
Dorůstající srpek, 29% visible
Tlak 30.05 inčů
Viditelnost 10.0 mílí
Zataženo Skoro zataženo 10000 ft
Skoro zataženo 12000 ft
Rosný bod 66 °F
Vlhkost 90%
Dešťové srážky 0.04 inčů
Sněhová pokrývka Není k dispozici
UV záření 0 ze 12
Pyl 10.40 ze 12
Kvalita ovzduší Není k dispozici
Flu Activity Není k dispozici
METAR KELZ 310956Z AUTO 20007KT 10SM BKN100 BKN120 21/19 A3009 RMK AO2 RAB00E41 SLP175 P0001 T02060189

More Conditions Fewer Conditions

Tlak 30.05 inčů
Viditelnost 10.0 mílí
Zataženo Skoro zataženo 10000 ft
Skoro zataženo 12000 ft
Rosný bod 66 °F
Vlhkost 90%
Dešťové srážky 0.04 inčů
Sněhová pokrývka Není k dispozici
UV záření 0 ze 12
Pyl 10.40 ze 12
Kvalita ovzduší Není k dispozici
Flu Activity Není k dispozici
METAR KELZ 310956Z AUTO 20007KT 10SM BKN100 BKN120 21/19 A3009 RMK AO2 RAB00E41 SLP175 P0001 T02060189

More Conditions Fewer Conditions

Nowcast | as of 5:01 am EDT on August 31, 2014

Clusters of showers and thunderstorms will be across the western portion of central Pennsylvania through 11 am. Most of the activity will be west of a Mansfield...State College...Bedford line. Some storms will contain brief torrential downpours. The showers are moving northeast at 25 mph.

×

10-Day Weather Forecast

Almanac

Astronomie

Aug. 31, 2014 Východ Západ
Skutečný čas 06:34 EDT 19:45 EDT
Občanský soumrak 06:06 EDT 20:13 EDT
Námořní soumrak 05:31 EDT 20:48 EDT
Astronomický soumrak 04:55 EDT 21:24 EDT
Měsíc 12:24 EDT 22:53 EDT
Délka denního světla 14h 07m
Délka dne
13h 10m
Tomorrow will be 2m 42s shorter.
Dorůstající srpek, 29% of the Moon is Illuminated
Dnes
Dorůstající srpek
Zář 2
První čtvrť
Zář 8
Úplněk
Zář 15
Ubývající
Zář 24
Nov

Dnešní extrémy

State Highs State Lows

Community

WunderPhotos

Upload Photos

1,748,834 snímků staženo!

Nearby

Výška sněhu

Station Hloubka Nadmořská výška
Žádný nový sníh nebyl hlášen

Seizmická činnost

Město Distance Mag. Čas & datum
Žádné zemětřesení v okolí nebylo hlášeno
Minimální zobrazený rozsah je 2.5.

Pobřežní teplota vody

Lokalita Teplota
Stanice nic nehlásí

Poblíž povětrnostní stanice